Time;durP1;ratioP1;P1;durP2;ratioP2;P2;SDS_P1;SDS_P2;PMS_P1;PMS_P2;Temp;Humidity;BMP_temperature;BMP_pressure;BME280_temperature;BME280_humidity;BME280_pressure;Samples;Min_cycle;Max_cycle;Signal;HPM_P1;HPM_P2
2022/03/12 00:00:48;;;;;;;;;;;;;;;13.88;30.78;100342.28;6088175;23;6987;-76
2022/03/12 00:03:15;;;;;;;;;;;;;;;13.84;31.17;100332.69;6112441;23;7023;-76
2022/03/12 00:05:54;;;;;;;;;;;;;;;13.78;30.57;100340.25;6112009;23;7111;-77
2022/03/12 00:08:45;;;;;;;;;;;;;;;13.78;31.61;100341.91;6113329;23;6778;-77
2022/03/12 00:11:34;;;;;;;;;;;;;;;13.78;31.44;100336.78;6111966;23;7206;-77
2022/03/12 00:14:03;;;;;;;;;;;;;;;13.74;31.33;100341.84;6112967;23;6964;-77
2022/03/12 00:16:31;;;;;;;;;;;;;;;13.74;31.64;100346.09;6111171;23;6857;-76
2022/03/12 00:19:02;;;;;;;;;;;;;;;13.72;31.64;100348.63;6112430;23;7131;-76
2022/03/12 00:21:33;;;;;;;;;;;;;;;13.72;30.93;100352.91;6111785;23;6940;-76
2022/03/12 00:23:59;;;;;;;;;;;;;;;13.70;31.27;100355.41;6112486;23;7047;-76
2022/03/12 00:26:28;;;;;;;;;;;;;;;13.69;31.03;100358.81;6136788;23;7124;-76
2022/03/12 00:28:55;;;;;;;;;;;;;;;13.68;31.51;100357.06;6113352;23;7124;-76
2022/03/12 00:31:22;;;;;;;;;;;;;;;13.67;31.75;100354.44;6111472;23;6770;-76
2022/03/12 00:33:49;;;;;;;;;;;;;;;13.66;31.23;100358.72;6113293;23;6811;-76
2022/03/12 00:36:17;;;;;;;;;;;;;;;13.66;31.22;100352.66;6111998;23;6846;-77
2022/03/12 00:38:45;;;;;;;;;;;;;;;13.66;31.44;100357.81;6089209;23;7022;-77
2022/03/12 00:41:13;;;;;;;;;;;;;;;13.66;31.60;100362.97;6111455;23;6942;-77
2022/03/12 00:43:39;;;;;;;;;;;;;;;13.65;31.67;100367.25;6111914;23;6779;-77
2022/03/12 00:46:08;;;;;;;;;;;;;;;13.66;31.15;100366.44;6112483;23;6767;-77
2022/03/12 00:48:34;;;;;;;;;;;;;;;13.64;31.58;100362.94;6112516;23;6779;-77
2022/03/12 00:51:00;;;;;;;;;;;;;;;13.64;31.76;100362.06;6112417;23;7082;-77
2022/03/12 00:53:26;;;;;;;;;;;;;;;13.63;31.41;100361.19;6112163;23;7093;-77
2022/03/12 00:55:52;;;;;;;;;;;;;;;13.63;31.24;100357.72;6113431;23;6779;-77
2022/03/12 00:58:17;;;;;;;;;;;;;;;13.63;31.03;100363.78;6113477;23;6794;-76
2022/03/12 01:00:44;;;;;;;;;;;;;;;13.63;31.59;100366.34;6112977;23;6834;-76
2022/03/12 01:03:10;;;;;;;;;;;;;;;13.65;31.14;100368.94;6112930;23;6783;-76
2022/03/12 01:06:03;;;;;;;;;;;;;;;13.64;31.13;100373.25;6113748;23;6948;-77
2022/03/12 01:08:32;;;;;;;;;;;;;;;13.64;31.23;100375.81;6107456;23;6942;-77
2022/03/12 01:11:03;;;;;;;;;;;;;;;13.64;31.45;100369.78;6112932;23;7458;-77
2022/03/12 01:13:29;;;;;;;;;;;;;;;13.65;31.08;100377.56;6110780;23;7014;-77
2022/03/12 01:15:55;;;;;;;;;;;;;;;13.65;32.01;100381.81;6112304;23;7170;-77
2022/03/12 01:18:23;;;;;;;;;;;;;;;13.65;32.02;100379.25;6136833;23;6959;-77
2022/03/12 01:20:50;;;;;;;;;;;;;;;13.64;31.73;100374.94;6111321;23;6791;-77
2022/03/12 01:23:17;;;;;;;;;;;;;;;13.64;31.19;100382.66;6111707;23;6974;-77
2022/03/12 01:25:46;;;;;;;;;;;;;;;13.61;31.87;100386.00;6112499;23;7283;-77
2022/03/12 01:28:15;;;;;;;;;;;;;;;13.59;31.91;100385.06;6113978;23;6895;-77
2022/03/12 01:30:41;;;;;;;;;;;;;;;13.55;31.42;100386.66;6112545;23;7028;-77
2022/03/12 01:33:07;;;;;;;;;;;;;;;13.49;31.74;100386.44;6111856;23;6873;-77
2022/03/12 01:35:33;;;;;;;;;;;;;;;13.49;32.57;100390.72;6112793;23;6850;-77
2022/03/12 01:38:01;;;;;;;;;;;;;;;13.48;32.44;100392.44;6111707;23;6786;-77
2022/03/12 01:40:28;;;;;;;;;;;;;;;13.48;32.76;100392.44;6112747;23;6775;-77
2022/03/12 01:42:54;;;;;;;;;;;;;;;13.47;32.64;100388.97;6111255;23;6778;-77
2022/03/12 01:45:27;;;;;;;;;;;;;;;13.46;32.08;100399.19;6087934;23;7049;-77
2022/03/12 01:47:59;;;;;;;;;;;;;;;13.44;32.01;100400.81;6112141;23;6868;-77
2022/03/12 01:50:32;;;;;;;;;;;;;;;13.43;32.88;100402.53;6112130;23;6858;-77
2022/03/12 01:53:03;;;;;;;;;;;;;;;13.42;32.38;100402.47;6111229;23;7117;-77
2022/03/12 01:55:30;;;;;;;;;;;;;;;13.40;31.89;100402.38;6111605;23;6854;-77
2022/03/12 01:58:00;;;;;;;;;;;;;;;13.38;32.96;100401.47;6112432;23;6992;-77
2022/03/12 02:00:26;;;;;;;;;;;;;;;13.36;32.46;100399.66;6112139;23;7042;-76
2022/03/12 02:02:56;;;;;;;;;;;;;;;13.34;32.36;100407.34;6110189;23;6775;-76
2022/03/12 02:05:25;;;;;;;;;;;;;;;13.33;32.57;100405.59;6135176;23;6801;-76
2022/03/12 02:07:51;;;;;;;;;;;;;;;13.30;32.59;100395.16;6114025;23;7294;-76
2022/03/12 02:10:20;;;;;;;;;;;;;;;13.29;32.62;100402.03;6113052;23;6798;-76
2022/03/12 02:12:46;;;;;;;;;;;;;;;13.28;32.26;100397.69;6113002;23;7045;-76
2022/03/12 02:15:12;;;;;;;;;;;;;;;13.29;32.69;100396.88;6136568;23;6775;-76
2022/03/12 02:17:38;;;;;;;;;;;;;;;13.30;32.99;100390.00;6112572;23;8187;-76
2022/03/12 02:20:06;;;;;;;;;;;;;;;13.31;32.50;100391.75;6088665;23;7191;-76
2022/03/12 02:22:32;;;;;;;;;;;;;;;13.31;33.08;100394.34;6110209;23;6952;-76
2022/03/12 02:24:57;;;;;;;;;;;;;;;13.32;33.21;100394.41;6112676;23;7144;-76
2022/03/12 02:27:25;;;;;;;;;;;;;;;13.35;33.33;100396.22;6112588;23;6837;-76
2022/03/12 02:29:59;;;;;;;;;;;;;;;13.37;32.57;100401.41;6090476;23;6994;-76
2022/03/12 02:32:26;;;;;;;;;;;;;;;13.40;33.06;100401.53;6088689;23;6787;-76
2022/03/12 02:34:51;;;;;;;;;;;;;;;13.47;32.97;100399.25;6089104;23;6787;-76
2022/03/12 02:37:30;;;;;;;;;;;;;;;13.49;34.12;100401.91;6114287;23;6766;-76
2022/03/12 02:39:58;;;;;;;;;;;;;;;13.47;34.39;100394.13;6092326;23;6787;-76
2022/03/12 02:42:25;;;;;;;;;;;;;;;13.49;35.37;100391.59;6087905;23;6791;-76
2022/03/12 02:44:52;;;;;;;;;;;;;;;13.55;35.93;100401.25;6113388;23;6794;-76
2022/03/12 02:47:42;;;;;;;;;;;;;;;13.63;36.39;100392.09;6138023;23;8465;-77
2022/03/12 02:50:11;;;;;;;;;;;;;;;13.71;36.45;100395.81;6089579;23;8369;-77
2022/03/12 02:52:41;;;;;;;;;;;;;;;13.80;37.18;100390.09;6113362;23;6786;-77
2022/03/12 02:55:12;;;;;;;;;;;;;;;13.87;36.44;100392.06;6114362;23;6790;-77
2022/03/12 02:57:40;;;;;;;;;;;;;;;13.95;37.53;100400.06;6113560;23;7314;-77
2022/03/12 03:00:08;;;;;;;;;;;;;;;13.99;37.19;100389.00;6088798;23;7032;-77
2022/03/12 03:02:41;;;;;;;;;;;;;;;14.03;38.08;100390.88;6092711;23;6841;-77
2022/03/12 03:05:23;;;;;;;;;;;;;;;14.06;37.97;100399.53;6118501;23;6887;-77
2022/03/12 03:07:56;;;;;;;;;;;;;;;14.09;38.09;100408.25;6118246;23;6786;-77
2022/03/12 03:10:38;;;;;;;;;;;;;;;14.11;38.93;100406.59;6116804;23;6913;-77
2022/03/12 03:13:18;;;;;;;;;;;;;;;14.13;38.98;100411.81;6117522;23;6891;-77
2022/03/12 03:15:47;;;;;;;;;;;;;;;14.14;39.63;100413.56;6116155;23;6855;-77
2022/03/12 03:18:22;;;;;;;;;;;;;;;14.13;39.89;100417.81;6117857;23;7002;-77
2022/03/12 03:20:50;;;;;;;;;;;;;;;14.13;39.56;100411.81;6118205;23;7103;-77
2022/03/12 03:23:16;;;;;;;;;;;;;;;14.13;39.80;100414.41;6116232;23;6846;-77
2022/03/12 03:25:42;;;;;;;;;;;;;;;14.14;40.60;100413.56;6116392;23;6862;-77
2022/03/12 03:28:08;;;;;;;;;;;;;;;14.15;40.31;100413.63;6116940;23;6948;-77
2022/03/12 03:30:39;;;;;;;;;;;;;;;14.18;40.53;100420.56;6118945;23;7026;-77
2022/03/12 03:33:11;;;;;;;;;;;;;;;14.17;40.73;100413.66;6116041;23;6783;-77
2022/03/12 03:35:38;;;;;;;;;;;;;;;14.14;40.81;100418.72;6117723;23;6787;-77
2022/03/12 03:38:06;;;;;;;;;;;;;;;14.12;40.47;100413.50;6116940;23;7788;-77
2022/03/12 03:40:32;;;;;;;;;;;;;;;14.08;40.81;100424.53;6118322;23;6782;-76
2022/03/12 03:42:58;;;;;;;;;;;;;;;14.01;41.72;100423.47;6116859;23;6830;-76
2022/03/12 03:45:27;;;;;;;;;;;;;;;13.94;41.93;100433.50;6119963;23;6818;-76
2022/03/12 03:47:55;;;;;;;;;;;;;;;13.84;41.96;100435.75;6116673;23;6786;-76
2022/03/12 03:50:25;;;;;;;;;;;;;;;13.74;42.14;100434.56;6093389;23;6867;-76
2022/03/12 03:53:03;;;;;;;;;;;;;;;13.64;42.07;100437.63;6117312;23;6775;-76
2022/03/12 03:55:32;;;;;;;;;;;;;;;13.55;42.87;100434.72;6118755;23;6783;-76
2022/03/12 03:57:59;;;;;;;;;;;;;;;13.44;42.43;100448.06;6119426;23;6998;-76
2022/03/12 04:00:28;;;;;;;;;;;;;;;13.37;43.38;100446.06;6118549;23;6870;-76
2022/03/12 04:03:04;;;;;;;;;;;;;;;13.29;43.24;100442.31;6113936;23;6994;-76
2022/03/12 04:05:31;;;;;;;;;;;;;;;13.19;43.29;100451.41;6113801;23;6794;-77
2022/03/12 04:07:57;;;;;;;;;;;;;;;13.13;44.36;100449.44;6114445;23;6859;-76
2022/03/12 04:10:24;;;;;;;;;;;;;;;13.10;44.20;100451.03;6114013;23;6929;-76
2022/03/12 04:12:50;;;;;;;;;;;;;;;13.05;44.74;100451.72;6088751;23;6953;-76
2022/03/12 04:15:17;;;;;;;;;;;;;;;13.00;44.28;100458.41;6136954;23;7052;-76
2022/03/12 04:17:45;;;;;;;;;;;;;;;12.95;44.39;100462.47;6113144;23;6783;-76
2022/03/12 04:20:13;;;;;;;;;;;;;;;12.90;45.14;100466.59;6112710;23;6950;-76
2022/03/12 04:22:39;;;;;;;;;;;;;;;12.87;44.76;100462.19;6112396;23;6823;-76
2022/03/12 04:25:10;;;;;;;;;;;;;;;12.82;45.37;100465.41;6113372;23;6823;-76
2022/03/12 04:27:38;;;;;;;;;;;;;;;12.75;45.43;100466.84;6114597;23;7129;-77
2022/03/12 04:30:06;;;;;;;;;;;;;;;12.71;45.05;100470.09;6112660;23;6795;-77
2022/03/12 04:32:32;;;;;;;;;;;;;;;12.66;45.42;100476.75;6111510;23;6802;-77
2022/03/12 04:34:58;;;;;;;;;;;;;;;12.59;46.04;100471.34;6113313;23;7078;-76
2022/03/12 04:37:24;;;;;;;;;;;;;;;12.54;45.94;100478.00;6112678;23;6795;-76
2022/03/12 04:39:49;;;;;;;;;;;;;;;12.49;45.72;100487.22;6113519;23;6818;-76
2022/03/12 04:42:21;;;;;;;;;;;;;;;12.46;45.99;100479.41;6114382;23;7083;-76
2022/03/12 04:44:48;;;;;;;;;;;;;;;12.42;46.04;100486.09;6136423;23;7030;-76
2022/03/12 04:47:17;;;;;;;;;;;;;;;12.38;46.35;100478.19;6113067;23;6888;-76
2022/03/12 04:49:42;;;;;;;;;;;;;;;12.32;46.25;100489.09;6112839;23;7079;-76
2022/03/12 04:52:11;;;;;;;;;;;;;;;12.25;46.75;100484.50;6114241;23;6845;-76
2022/03/12 04:54:37;;;;;;;;;;;;;;;12.17;46.99;100486.75;6112098;23;6968;-77
2022/03/12 04:57:04;;;;;;;;;;;;;;;12.12;47.36;100484.00;6137868;23;6778;-76
2022/03/12 04:59:30;;;;;;;;;;;;;;;12.06;47.31;100482.00;6135894;23;6791;-76
2022/03/12 05:01:57;;;;;;;;;;;;;;;12.02;47.49;100485.25;6110072;23;7026;-76
2022/03/12 05:04:23;;;;;;;;;;;;;;;11.99;47.63;100492.81;6114600;23;7162;-76
2022/03/12 05:06:49;;;;;;;;;;;;;;;11.97;48.07;100496.97;6138346;23;6887;-76
2022/03/12 05:09:15;;;;;;;;;;;;;;;11.96;48.40;100500.38;6112262;23;6806;-76
2022/03/12 05:11:41;;;;;;;;;;;;;;;11.95;48.26;100496.03;6112467;23;6960;-76
2022/03/12 05:14:10;;;;;;;;;;;;;;;11.92;48.28;100501.91;6112138;23;6816;-76
2022/03/12 05:16:36;;;;;;;;;;;;;;;11.89;48.10;100499.22;6113025;23;6981;-76
2022/03/12 05:19:06;;;;;;;;;;;;;;;11.85;47.89;100499.91;6111717;23;7177;-76
2022/03/12 05:21:32;;;;;;;;;;;;;;;11.83;48.65;100495.50;6088414;23;7047;-76
2022/03/12 05:23:58;;;;;;;;;;;;;;;11.81;48.60;100496.31;6113491;23;6791;-77
2022/03/12 05:26:24;;;;;;;;;;;;;;;11.85;48.82;100499.03;6138120;23;6978;-77
2022/03/12 05:28:49;;;;;;;;;;;;;;;11.85;48.69;100486.19;6113080;23;6986;-75
2022/03/12 05:31:16;;;;;;;;;;;;;;;11.87;49.29;100489.69;6112196;23;6790;-75
2022/03/12 05:33:43;;;;;;;;;;;;;;;11.88;49.06;100488.88;6112270;23;6794;-75
2022/03/12 05:36:09;;;;;;;;;;;;;;;11.91;48.74;100494.16;6110983;23;6787;-75
2022/03/12 05:38:35;;;;;;;;;;;;;;;11.93;49.54;100492.53;6110974;23;6774;-75
2022/03/12 05:41:02;;;;;;;;;;;;;;;11.94;49.78;100489.16;6111799;23;7976;-75
2022/03/12 05:43:30;;;;;;;;;;;;;;;11.96;49.48;100497.78;6112872;23;6783;-75
2022/03/12 05:45:56;;;;;;;;;;;;;;;11.97;49.52;100499.56;6112474;23;6783;-75
2022/03/12 05:48:22;;;;;;;;;;;;;;;11.99;49.64;100497.06;6114119;23;6782;-74
2022/03/12 05:50:49;;;;;;;;;;;;;;;12.02;50.31;100507.47;6112706;23;6837;-74
2022/03/12 05:53:17;;;;;;;;;;;;;;;12.03;49.68;100509.28;6110615;23;6794;-75
2022/03/12 05:55:43;;;;;;;;;;;;;;;12.06;49.98;100517.09;6110203;23;6790;-75
2022/03/12 05:58:12;;;;;;;;;;;;;;;12.06;50.08;100515.41;6112258;23;6957;-75
2022/03/12 06:00:41;;;;;;;;;;;;;;;12.07;49.79;100514.63;6112821;23;7036;-75
2022/03/12 06:03:11;;;;;;;;;;;;;;;12.06;49.74;100515.41;6115034;23;6883;-75
2022/03/12 06:05:41;;;;;;;;;;;;;;;12.06;49.91;100520.53;6115095;23;7087;-75
2022/03/12 06:08:08;;;;;;;;;;;;;;;12.06;49.39;100522.25;6115121;23;7839;-75
2022/03/12 06:10:37;;;;;;;;;;;;;;;12.05;50.01;100521.34;6114418;23;6942;-75
2022/03/12 06:13:05;;;;;;;;;;;;;;;12.03;49.64;100525.56;6136925;23;6786;-75
2022/03/12 06:15:32;;;;;;;;;;;;;;;12.01;49.76;100528.81;6115243;23;6867;-75
2022/03/12 06:17:58;;;;;;;;;;;;;;;11.98;49.80;100536.41;6114519;23;6957;-75
2022/03/12 06:20:24;;;;;;;;;;;;;;;11.96;49.96;100536.31;6112359;23;7046;-75
2022/03/12 06:22:53;;;;;;;;;;;;;;;11.93;50.21;100533.63;6113302;23;7211;-75
2022/03/12 06:25:22;;;;;;;;;;;;;;;11.93;50.07;100533.63;6114691;23;7150;-75
2022/03/12 06:27:54;;;;;;;;;;;;;;;11.94;50.39;100540.53;6114942;23;7206;-75
2022/03/12 06:30:24;;;;;;;;;;;;;;;11.96;50.29;100538.91;6115347;23;6941;-75
2022/03/12 06:32:50;;;;;;;;;;;;;;;11.97;50.10;100539.78;6113923;23;7019;-75
2022/03/12 06:35:17;;;;;;;;;;;;;;;12.00;49.85;100551.09;6089100;23;7033;-75
2022/03/12 06:37:44;;;;;;;;;;;;;;;12.02;50.33;100552.06;6114663;23;7216;-75
2022/03/12 06:40:14;;;;;;;;;;;;;;;12.01;50.38;100545.13;6115063;23;6871;-75
2022/03/12 06:42:43;;;;;;;;;;;;;;;12.01;50.09;100547.69;6089652;23;6775;-75
2022/03/12 06:45:10;;;;;;;;;;;;;;;12.01;50.59;100554.50;6115270;23;6790;-75
2022/03/12 06:47:38;;;;;;;;;;;;;;;12.00;50.19;100553.66;6113975;23;6794;-75
2022/03/12 06:50:13;;;;;;;;;;;;;;;12.00;50.44;100563.94;6115515;23;6786;-76
2022/03/12 06:52:45;;;;;;;;;;;;;;;12.00;50.83;100561.34;6088668;23;7189;-76
2022/03/12 06:55:11;;;;;;;;;;;;;;;12.01;50.67;100550.28;6113858;23;7960;-75
2022/03/12 06:57:38;;;;;;;;;;;;;;;12.04;51.20;100553.00;6113218;23;6957;-76
2022/03/12 07:00:06;;;;;;;;;;;;;;;12.06;51.16;100556.50;6113959;23;6946;-76
2022/03/12 07:02:32;;;;;;;;;;;;;;;12.12;50.93;100561.06;6113521;23;6782;-76
2022/03/12 07:04:57;;;;;;;;;;;;;;;12.18;50.78;100563.03;6116614;23;7010;-76
2022/03/12 07:07:23;;;;;;;;;;;;;;;12.24;51.22;100570.97;6114601;23;6775;-76
2022/03/12 07:09:49;;;;;;;;;;;;;;;12.32;51.02;100574.78;6113843;23;6850;-76
2022/03/12 07:12:14;;;;;;;;;;;;;;;12.40;51.12;100576.81;6113413;23;6783;-76
2022/03/12 07:14:41;;;;;;;;;;;;;;;12.50;50.91;100584.09;6113461;23;6774;-76
2022/03/12 07:17:07;;;;;;;;;;;;;;;12.62;51.59;100599.19;6114258;23;6787;-76
2022/03/12 07:19:33;;;;;;;;;;;;;;;12.74;51.33;100591.97;6114484;23;6854;-76
2022/03/12 07:21:59;;;;;;;;;;;;;;;12.87;51.43;100590.81;6115498;23;6839;-76
2022/03/12 07:24:25;;;;;;;;;;;;;;;12.99;50.83;100589.53;6090844;23;6994;-76
2022/03/12 07:26:51;;;;;;;;;;;;;;;13.13;51.45;100592.69;6089771;23;6870;-76
2022/03/12 07:29:17;;;;;;;;;;;;;;;13.27;51.18;100588.09;6114972;23;7844;-76
2022/03/12 07:31:43;;;;;;;;;;;;;;;13.41;50.98;100599.81;6114780;23;6886;-76
2022/03/12 07:34:08;;;;;;;;;;;;;;;13.57;50.52;100596.19;6115767;23;6995;-76
2022/03/12 07:36:34;;;;;;;;;;;;;;;13.73;50.01;100601.91;6115383;23;6763;-76
2022/03/12 07:39:03;;;;;;;;;;;;;;;13.89;49.94;100612.00;6113901;23;8300;-76
2022/03/12 07:41:31;;;;;;;;;;;;;;;14.03;50.68;100609.03;6113639;23;7053;-75
2022/03/12 07:43:58;;;;;;;;;;;;;;;14.15;49.77;100606.94;6114095;23;6973;-75
2022/03/12 07:46:24;;;;;;;;;;;;;;;14.30;50.31;100614.34;6113213;23;6790;-75
2022/03/12 07:48:49;;;;;;;;;;;;;;;14.43;49.45;100625.09;6115894;23;6940;-75
2022/03/12 07:51:15;;;;;;;;;;;;;;;14.55;49.72;100620.38;6113420;23;6855;-75
2022/03/12 07:53:42;;;;;;;;;;;;;;;14.67;49.46;100626.78;6088850;23;7074;-75
2022/03/12 07:56:09;;;;;;;;;;;;;;;14.78;48.48;100630.66;6112886;23;6786;-75
2022/03/12 07:58:36;;;;;;;;;;;;;;;14.89;48.96;100625.84;6114679;23;7264;-76
2022/03/12 08:01:03;;;;;;;;;;;;;;;15.00;48.17;100633.97;6112208;23;7117;-76
2022/03/12 08:03:29;;;;;;;;;;;;;;;15.11;48.09;100629.13;6114246;23;6794;-76
2022/03/12 08:05:56;;;;;;;;;;;;;;;15.23;47.91;100634.72;6114749;23;6874;-76
2022/03/12 08:08:22;;;;;;;;;;;;;;;15.33;47.83;100641.03;6113084;23;8017;-76
2022/03/12 08:13:32;;;;;;;;;;;;;;;15.56;46.91;100638.34;6092002;23;7086;-76
2022/03/12 08:15:59;;;;;;;;;;;;;;;15.68;46.59;100651.63;6113536;23;6778;-76
2022/03/12 08:18:25;;;;;;;;;;;;;;;15.77;46.29;100642.41;6114842;23;6955;-76
2022/03/12 08:20:51;;;;;;;;;;;;;;;15.85;45.94;100648.69;6114266;23;6868;-75
2022/03/12 08:23:17;;;;;;;;;;;;;;;15.90;46.06;100647.16;6112876;23;6767;-75
2022/03/12 08:25:42;;;;;;;;;;;;;;;15.99;46.30;100654.31;6115162;23;6938;-75
2022/03/12 08:28:09;;;;;;;;;;;;;;;16.09;45.80;100652.88;6114270;23;6819;-75
2022/03/12 08:30:36;;;;;;;;;;;;;;;16.17;45.65;100653.97;6114355;23;7311;-75
2022/03/12 08:33:02;;;;;;;;;;;;;;;16.24;44.87;100657.59;6112820;23;7318;-76
2022/03/12 08:35:29;;;;;;;;;;;;;;;16.32;45.40;100660.41;6112733;23;6782;-76
2022/03/12 08:37:55;;;;;;;;;;;;;;;16.38;45.06;100658.00;6113045;23;6871;-76
2022/03/12 08:40:22;;;;;;;;;;;;;;;16.46;44.72;100658.19;6112067;23;6865;-76
2022/03/12 08:42:47;;;;;;;;;;;;;;;16.52;44.76;100663.56;6107129;23;7824;-76
2022/03/12 08:45:13;;;;;;;;;;;;;;;16.57;44.41;100666.28;6113070;23;6838;-76
2022/03/12 08:47:41;;;;;;;;;;;;;;;16.61;44.82;100663.81;6113265;23;7090;-76
2022/03/12 08:50:08;;;;;;;;;;;;;;;16.68;44.64;100671.75;6113368;23;7263;-76
2022/03/12 08:52:36;;;;;;;;;;;;;;;16.71;44.31;100671.81;6088667;23;6787;-76
2022/03/12 08:55:03;;;;;;;;;;;;;;;16.75;44.23;100671.06;6113506;23;6961;-77
2022/03/12 08:57:29;;;;;;;;;;;;;;;16.77;44.21;100678.03;6089453;23;6891;-76
2022/03/12 08:59:55;;;;;;;;;;;;;;;16.79;43.71;100671.19;6114017;23;6809;-76
2022/03/12 09:02:21;;;;;;;;;;;;;;;16.85;43.70;100679.97;6112072;23;6946;-75
2022/03/12 09:04:47;;;;;;;;;;;;;;;16.89;43.33;100672.31;6111945;23;7030;-75
2022/03/12 09:07:13;;;;;;;;;;;;;;;16.98;43.67;100669.09;6064382;23;6948;-75
2022/03/12 09:09:39;;;;;;;;;;;;;;;17.09;43.42;100661.63;6114864;23;7038;-75
2022/03/12 09:12:05;;;;;;;;;;;;;;;17.22;43.63;100662.81;6114080;23;6771;-75
2022/03/12 09:14:34;;;;;;;;;;;;;;;17.34;43.25;100655.34;6115368;23;7436;-75
2022/03/12 09:17:03;;;;;;;;;;;;;;;17.47;43.15;100653.94;6114188;23;6997;-75
2022/03/12 09:19:29;;;;;;;;;;;;;;;17.57;43.08;100657.59;6112515;23;6778;-75
2022/03/12 09:21:59;;;;;;;;;;;;;;;17.67;42.64;100653.50;6088325;23;6782;-75
2022/03/12 09:24:25;;;;;;;;;;;;;;;17.70;42.04;100653.56;6088358;23;6995;-75
2022/03/12 09:26:51;;;;;;;;;;;;;;;17.75;42.09;100662.34;6113620;23;7242;-75
2022/03/12 09:29:17;;;;;;;;;;;;;;;17.78;42.03;100666.72;6113579;23;6805;-75
2022/03/12 09:31:43;;;;;;;;;;;;;;;17.84;41.97;100666.84;6113026;23;6815;-75
2022/03/12 09:34:09;;;;;;;;;;;;;;;17.94;41.62;100667.06;6113138;23;6989;-75
2022/03/12 09:36:39;;;;;;;;;;;;;;;18.03;41.94;100668.19;6112095;23;6782;-75
2022/03/12 09:39:07;;;;;;;;;;;;;;;18.12;41.25;100670.09;6115116;23;6862;-75
2022/03/12 09:41:34;;;;;;;;;;;;;;;18.23;41.72;100669.44;6112997;23;6951;-75
2022/03/12 09:44:01;;;;;;;;;;;;;;;18.32;41.30;100665.31;6115546;23;7047;-75
2022/03/12 09:46:27;;;;;;;;;;;;;;;18.40;40.67;100678.44;6113002;23;6791;-76
2022/03/12 09:48:52;;;;;;;;;;;;;;;18.49;40.90;100671.69;6113588;23;6791;-75
2022/03/12 09:51:18;;;;;;;;;;;;;;;18.56;40.79;100671.81;6113154;23;7113;-75
2022/03/12 09:53:44;;;;;;;;;;;;;;;18.64;40.45;100658.13;6113083;23;7014;-75
2022/03/12 09:56:10;;;;;;;;;;;;;;;18.68;40.35;100663.41;6113844;23;6854;-75
2022/03/12 09:58:35;;;;;;;;;;;;;;;18.72;39.75;100660.00;6113431;23;7002;-75
2022/03/12 10:01:01;;;;;;;;;;;;;;;18.77;39.24;100664.44;6112970;23;6837;-75
2022/03/12 10:03:27;;;;;;;;;;;;;;;18.79;38.97;100665.31;6113184;23;6795;-75
2022/03/12 10:05:52;;;;;;;;;;;;;;;18.81;38.89;100676.59;6113592;23;7042;-75
2022/03/12 10:08:18;;;;;;;;;;;;;;;18.78;39.54;100664.44;6112746;23;6826;-75
2022/03/12 10:10:44;;;;;;;;;;;;;;;18.75;38.80;100674.78;6112896;23;7776;-75
2022/03/12 10:13:11;;;;;;;;;;;;;;;18.72;38.76;100674.72;6112550;23;6763;-75
2022/03/12 10:15:37;;;;;;;;;;;;;;;18.72;38.80;100677.31;6113520;23;6947;-75
2022/03/12 10:18:05;;;;;;;;;;;;;;;18.73;39.26;100671.28;6113600;23;7067;-75
2022/03/12 10:20:31;;;;;;;;;;;;;;;18.72;38.81;100675.59;6115284;23;6794;-75
2022/03/12 10:22:56;;;;;;;;;;;;;;;18.69;38.46;100672.94;6112822;23;6766;-75
2022/03/12 10:25:23;;;;;;;;;;;;;;;18.65;37.99;100678.94;6114070;23;6854;-76
2022/03/12 10:27:49;;;;;;;;;;;;;;;18.61;38.22;100674.50;6113262;23;7155;-76
2022/03/12 10:30:16;;;;;;;;;;;;;;;18.62;38.57;100683.19;6113052;23;7082;-75
2022/03/12 10:32:45;;;;;;;;;;;;;;;18.65;38.67;100670.25;6112565;23;6787;-75
2022/03/12 10:35:18;;;;;;;;;;;;;;;18.69;39.04;100664.28;6113448;23;7015;-75
2022/03/12 10:37:46;;;;;;;;;;;;;;;18.75;38.46;100664.38;6137128;23;6868;-75
2022/03/12 10:40:20;;;;;;;;;;;;;;;18.86;38.63;100665.44;6113715;23;6786;-75
2022/03/12 10:42:53;;;;;;;;;;;;;;;18.98;38.77;100662.22;6136914;23;6786;-75
2022/03/12 10:45:27;;;;;;;;;;;;;;;19.21;38.08;100666.94;6137572;23;6826;-75
2022/03/12 10:47:57;;;;;;;;;;;;;;;19.46;37.60;100669.06;6116088;23;6779;-75
2022/03/12 10:50:46;;;;;;;;;;;;;;;19.63;37.70;100664.16;6114950;23;6774;-76
2022/03/12 10:53:15;;;;;;;;;;;;;;;19.71;36.94;100659.94;6114624;23;6930;-76
2022/03/12 10:55:48;;;;;;;;;;;;;;;19.75;36.87;100658.22;6116237;23;7048;-76
2022/03/12 10:58:26;;;;;;;;;;;;;;;19.80;36.94;100654.88;6115378;23;6774;-75
2022/03/12 11:00:57;;;;;;;;;;;;;;;19.89;36.51;100651.50;6089645;23;6874;-75
2022/03/12 11:03:35;;;;;;;;;;;;;;;20.05;36.27;100655.22;6114167;23;6795;-75
2022/03/12 11:06:05;;;;;;;;;;;;;;;20.12;35.92;100653.56;6115811;23;6977;-75
2022/03/12 11:08:34;;;;;;;;;;;;;;;20.16;35.93;100651.88;6114798;23;6779;-75
2022/03/12 11:11:11;;;;;;;;;;;;;;;20.24;36.50;100656.34;6114413;23;6903;-75
2022/03/12 11:13:58;;;;;;;;;;;;;;;20.54;35.84;100660.16;6092015;23;7617;-75
2022/03/12 11:16:32;;;;;;;;;;;;;;;20.92;35.62;100644.94;6114417;23;7017;-75
2022/03/12 11:19:12;;;;;;;;;;;;;;;21.30;35.21;100641.75;6115552;23;6783;-75
2022/03/12 11:21:51;;;;;;;;;;;;;;;21.88;35.25;100644.75;6114135;23;6778;-75
2022/03/12 11:24:43;;;;;;;;;;;;;;;22.70;34.07;100637.22;6115965;23;6775;-75
2022/03/12 11:27:27;;;;;;;;;;;;;;;23.37;32.94;100634.66;6114803;23;6890;-75
2022/03/12 11:30:08;;;;;;;;;;;;;;;23.56;32.36;100639.81;6069611;23;7194;-75
2022/03/12 11:32:44;;;;;;;;;;;;;;;23.50;31.91;100645.09;6087265;23;7994;-76
2022/03/12 11:35:15;;;;;;;;;;;;;;;23.31;31.44;100650.34;6114207;23;6862;-76
2022/03/12 11:37:42;;;;;;;;;;;;;;;23.04;31.46;100646.81;6114509;23;6941;-76
2022/03/12 11:40:19;;;;;;;;;;;;;;;22.70;31.47;100646.81;6115176;23;6787;-76
2022/03/12 11:42:47;;;;;;;;;;;;;;;22.36;31.96;100644.97;6113783;23;6783;-75
2022/03/12 11:45:17;;;;;;;;;;;;;;;22.10;32.16;100658.78;6114814;23;6867;-76
2022/03/12 11:47:45;;;;;;;;;;;;;;;22.05;32.15;100658.75;6115481;23;7174;-76
2022/03/12 11:50:19;;;;;;;;;;;;;;;22.21;32.87;100645.75;6114298;23;6780;-76
2022/03/12 11:52:47;;;;;;;;;;;;;;;22.43;32.23;100645.84;6114265;23;7053;-76
2022/03/12 11:55:22;;;;;;;;;;;;;;;22.68;32.25;100638.97;6114501;23;6806;-76
2022/03/12 11:57:52;;;;;;;;;;;;;;;23.08;31.94;100627.69;6089551;23;7413;-76
2022/03/12 12:00:25;;;;;;;;;;;;;;;23.73;31.60;100626.72;6114642;23;7096;-76
2022/03/12 12:02:52;;;;;;;;;;;;;;;24.49;30.71;100618.53;6114338;23;6782;-76
2022/03/12 12:05:19;;;;;;;;;;;;;;;25.22;30.36;100610.13;6115335;23;6778;-76
2022/03/12 12:07:47;;;;;;;;;;;;;;;25.55;28.72;100611.59;6114548;23;6790;-76
2022/03/12 12:10:17;;;;;;;;;;;;;;;25.69;28.38;100606.16;6113650;23;6943;-76
2022/03/12 12:12:46;;;;;;;;;;;;;;;25.79;28.05;100605.22;6112887;23;7251;-76
2022/03/12 12:15:23;;;;;;;;;;;;;;;25.81;28.00;100602.53;6114157;23;7082;-76
2022/03/12 12:17:51;;;;;;;;;;;;;;;25.77;28.00;100606.97;6109648;23;7010;-76
2022/03/12 12:20:20;;;;;;;;;;;;;;;25.63;27.93;100610.63;6112615;23;6786;-76
2022/03/12 12:22:46;;;;;;;;;;;;;;;25.34;28.35;100614.41;6113134;23;6933;-75
2022/03/12 12:25:15;;;;;;;;;;;;;;;24.91;28.40;100614.78;6111666;23;7619;-75
2022/03/12 12:27:50;;;;;;;;;;;;;;;24.38;28.93;100620.34;6112087;23;7087;-75
2022/03/12 12:30:24;;;;;;;;;;;;;;;23.90;28.77;100616.19;6112266;23;6866;-76
2022/03/12 12:32:51;;;;;;;;;;;;;;;23.62;28.74;100618.91;6114970;23;7004;-75
2022/03/12 12:35:20;;;;;;;;;;;;;;;23.49;29.33;100625.91;6112754;23;7042;-75
2022/03/12 12:38:04;;;;;;;;;;;;;;;23.37;29.58;100616.34;6086951;23;6950;-75
2022/03/12 12:40:48;;;;;;;;;;;;;;;23.22;29.26;100613.72;6112596;23;7038;-75
2022/03/12 12:43:21;;;;;;;;;;;;;;;23.06;30.26;100613.72;6113604;23;6786;-75
2022/03/12 12:45:52;;;;;;;;;;;;;;;22.92;30.20;100610.25;6113348;23;6790;-75
2022/03/12 12:48:28;;;;;;;;;;;;;;;22.76;30.04;100607.59;6112752;23;7052;-75
2022/03/12 12:51:27;;;;;;;;;;;;;;;22.59;29.92;100602.38;6113466;23;7297;-75
2022/03/12 12:53:57;;;;;;;;;;;;;;;22.45;30.16;100610.16;6104448;23;6786;-75
2022/03/12 12:56:36;;;;;;;;;;;;;;;22.37;30.26;100604.91;6115136;23;6778;-75
2022/03/12 12:59:02;;;;;;;;;;;;;;;22.30;30.29;100596.19;6112344;23;6791;-75